YLOD weather

Longwood Airport
Victoria, Australia

Public forecast

Using degrees Celsius for public forecast. Weather courtesy of forecast.io.

Closest aviation weather report (METAR) to Longwood Airport

Closest report is Wangaratta Airport, 47.2 nm (87.5 km) ENE. Retrieved 2020/01/24 19:00 UTC (28 minutes ago):

YWGT 241900Z AUTO 28005KT 9999 // NCD 10/09 Q1014

Closest aviation forecast (TAF) to Longwood Airport

Closest forecast is Wangaratta Airport, 47.2 nm (87.5 km) ENE. Retrieved 2020/01/24 19:03 UTC (25 minutes ago):

TAF YWGT 241758Z 2419/2508 VRB03KT CAVOK FM250000 25008KT CAVOK